Terminal Aerodrome Forecast
Issued by NWS

Home | Current Version | Previous Version | Graphics & Text | Print | Product List | Glossary On
Versions: 1 2 3 4 5 6 7 8 9 10 11 12 13 14 15 16
000
FTUS43 KMPX 211738
TAFRWF
TAF
KRWF 211738Z 2118/2218 32018G26KT P6SM SKC
     FM212200 32013G20KT P6SM SKC
     FM220100 31010KT P6SM SKC
     FM220500 28006KT P6SM SKC
     FM221400 19010KT P6SM BKN250=

USA.gov is the U.S. government's official web portal to all federal, state and local government web resources and services.